KSLK/SLK METAR and TAF weather

Enter ICAO airport designator
Station Type Date Time Source
KSLK METAR 2019/07/17 18:07 UTC NOAA

KSLK 171807Z AUTO 24006KT 10SM SCT017 BKN049 OVC085 22/20 A2994 RMK AO2 RAE1758 P0000 T02220200


Station Type Date Time Source
KSLK Decoded METAR 2019/07/17 18:07 UTC NOAA

ADIRONDACK REGIONAL AIRPORT, NY, United States (KSLK) 44-24N 074-12W 498M
Jul 17, 2019 - 02:07 PM EDT / 2019.07.17 1807 UTC
Wind: from the WSW (240 degrees) at 7 MPH (6 KT):0
Visibility: 10 mile(s):0
Sky conditions: overcast
Precipitation last hour: A trace
Temperature: 72.0 F (22.2 C)
Dew Point: 68.0 F (20.0 C)
Relative Humidity: 87%
Pressure (altimeter): 29.94 in. Hg (1013 hPa)
ob: KSLK 171807Z AUTO 24006KT 10SM SCT017 BKN049 OVC085 22/20 A2994 RMK AO2 RAE1758 P0000 T02220200
cycle: 18

Station Type Date Time Source
KSLK TAF 2019/07/17 18:42 UTC NOAA

TAF KSLK 171739Z 1718/1818 24007KT P6SM VCSH BKN015 OVC035
TEMPO 1718/1722 2SM TS BR OVC015CB
FM180400 VRB03KT 3SM BR SCT080
FM181300 14005KT P6SM BKN050

Example: see airport list